Silver Point, TN (38582)

11:18 AM CST on February 08, 2016 (GMT -0600)
Boma | | Change Station
CLOSE
Current Station
Personal Weather Station
Location: Baxter, TN
Elevation: 1047 ft
Nearby Weather Stations
Active Advisory: Winter Weather Advisory

Elev 1047 ft 36.13 °N, 85.68 °W | Updated 8 minutes ago

Partly Cloudy
Partly Cloudy
42.4 °F
Feels Like 40 °F
N
3.7
Wind Variable Wind from SSE

Today
High -- | Low -- °F
--% Chance of Precip.
Yesterday
High -- | Low -- °F
Precip. -- in
Pressure 29.75 in
Visibility 10.0 miles
Clouds Few 4600 ft
Scattered Clouds 5500 ft
Mostly Cloudy 9000 ft
Windchill 40 °F
Dew Point 26 °F
Humidity 51%
Rainfall 0.00 in
Snow Depth Not available.
6:38 AM 5:16 PM
New Moon, 0% visible
METAR KSRB 081655Z AUTO 29008KT 10SM FEW046 SCT055 BKN090 07/M03 A2975 RMK
Pressure 29.75 in
Visibility 10.0 miles
Clouds Few 4600 ft
Scattered Clouds 5500 ft
Mostly Cloudy 9000 ft
Windchill 40 °F
Dew Point 26 °F
Humidity 51%
Rainfall 0.00 in
Snow Depth Not available.
6:38 AM 5:16 PM
New Moon, 0% visible
METAR KSRB 081655Z AUTO 29008KT 10SM FEW046 SCT055 BKN090 07/M03 A2975 RMK

10-Day Weather Forecast

Almanac

Astronomy

Feb. 08, 2016 Rise Set
Actual Time
Civil Twilight
Nautical Twilight
Astronomical Twilight
Moon
Length of Visible Light
Length of Day
Tomorrow will be .
, % of the Moon is Illuminated

Today's Extremes

State Highs State Lows

Community

WunderPhotos

Upload Photos

1,891,471 photos uploaded!

WunderBlog® & News

Nearby

Air Quality

  Air Quality AQ Index Pollutant
Not available.

Snow Depth

Station Depth Elevation

Earthquake Activity

City Distance Mag. Time & Date
Minimum magnitude displayed is 2.5.

Coastal Water Temperatures

Place Temperature

Stations

Nearby Weather Stations

Station Location Temp. Windchill Dew Point Humidity Wind Precip. Elev Updated Type
                   

Watches & Warnings

Winter Weather Advisory
Issued: 5:20 AM CST Feb. 8, 2016 – National Weather Service

... Winter Weather Advisory now in effect from noon today to 6 am
CST Wednesday for the Cumberland Plateau region...

* timing... noon today until 6 am CST Wednesday.

* Main impact... hazardous travel conditions expected across the
Cumberland Plateau region.

* Total snow accumulations... 1 to 2 inches with locally higher
amounts around 3 inches possible... especially across the upper
Cumberland region.

Precautionary/preparedness actions...

A Winter Weather Advisory for snow means that periods of snow
will cause primarily travel difficulties. Be prepared for snow
covered roads and limited visibilities... and use caution while
driving.


31